Dalmatia, PA (17017)

6:15 AM EDT on May 27, 2016 (GMT -0400)
Upper Paxton Township | Change Station
CLOSE
Current Station
Personal Weather Station
Location: Millersburg, PA
Elevation: 531 ft
Nearby Weather Stations

Elev 531 ft 40.57 °N, 76.96 °W | Updated 14 seconds ago

Overcast
Overcast
67.6 °F
Feels Like 67.6 °F
N
0.0
Wind Variable Wind from SSE
Gusts 0.0 mph

Today
High -- | Low -- °F
--% Chance of Precip.
Yesterday
High -- | Low -- °F
Precip. -- in
5:41 AM 8:28 PM
Waning Gibbous, 72% visible
Pressure 30.05 in
Visibility 7.0 miles
Clouds Overcast 9000 ft
Dew Point 66 °F
Humidity 94%
Rainfall 0.00 in
Snow Depth Not available.
UV 0.0 out of 12
Pollen 9.10 out of 12
Air Quality Not available.
Flu Activity Regional
METAR KSEG 270953Z AUTO 00000KT 7SM OVC090 19/18 A3006 RMK AO2 SLP175 T01940178

More Conditions Fewer Conditions

Pressure 30.05 in
Visibility 7.0 miles
Clouds Overcast 9000 ft
Dew Point 66 °F
Humidity 94%
Rainfall 0.00 in
Snow Depth Not available.
UV 0.0 out of 12
Pollen 9.10 out of 12
Air Quality Not available.
Flu Activity Regional
METAR KSEG 270953Z AUTO 00000KT 7SM OVC090 19/18 A3006 RMK AO2 SLP175 T01940178

More Conditions Fewer Conditions

10-Day Weather Forecast

Almanac

Astronomy

May. 27, 2016 Rise Set
Actual Time 5:41 AM EDT 8:28 PM EDT
Civil Twilight 5:08 AM EDT 9:01 PM EDT
Nautical Twilight 4:28 AM EDT 9:41 PM EDT
Astronomical Twilight 3:41 AM EDT 10:28 PM EDT
Moon 12:17 AM EDT 10:54 AM EDT
Length of Visible Light 15h 52m
Length of Day
14h 47m
Tomorrow will be 1m 22s longer.
Waning Gibbous, 72% of the Moon is Illuminated
Today
Waning Gibbous
May 29
Last Quarter
Jun 4
New
Jun 12
First Quarter
Jun 20
Full

Yesterday's Extremes

State Highs State Lows

Community

WunderPhotos

Upload Photos

1,913,954 photos uploaded!

Nearby

Snow Depth

Station Depth Elevation
No new snow has been reported.

Earthquake Activity

City Distance Mag. Time & Date
No recent earthquake activity has been reported nearby.
Minimum magnitude displayed is 2.5.

Coastal Water Temperatures

Place Temperature
No Stations Reporting

Nearby Weather Stations